Terminal Aerodrome Forecast
Issued by NWS

Home | Current Version | Previous Version | Text Only | Print | Product List | Glossary On
Versions: 1 2 3 4 5 6 7 8 9 10 11 12 13 14 15 16 17
792
FTUS43 KAPX 251819 AAE
TAFMBL
TAF AMD
KMBL 251819Z 2518/2618 32013G19KT P6SM FEW030
     FM252100 34012G19KT P6SM SKC
     FM252300 36008KT P6SM SKC
     FM260100 01004KT P6SM SKC
     FM261400 22005KT P6SM FEW200
     FM261700 23009KT P6SM SCT200=

USA.gov is the U.S. government's official web portal to all federal, state and local government web resources and services.